createdAt,value
2022-11-12T00:00:36.931Z,100883.70
2022-11-12T00:03:22.462Z,100885.45
2022-11-12T00:06:08.028Z,100882.11
2022-11-12T00:08:53.554Z,100883.16
2022-11-12T00:11:38.994Z,100886.82
2022-11-12T00:14:24.325Z,100890.64
2022-11-12T00:17:09.933Z,100887.34
2022-11-12T00:19:55.313Z,100894.19
2022-11-12T00:22:41.018Z,100895.96
2022-11-12T00:25:26.700Z,100890.61
2022-11-12T00:28:12.243Z,100887.64
2022-11-12T00:30:57.746Z,100892.40
2022-11-12T00:33:43.433Z,100888.45
2022-11-12T00:36:28.615Z,100888.22
2022-11-12T00:39:14.405Z,100891.20
2022-11-12T00:41:59.751Z,100889.45
2022-11-12T00:44:45.358Z,100891.49
2022-11-12T00:47:30.892Z,100889.69
2022-11-12T00:50:16.944Z,100891.67
2022-11-12T00:53:02.287Z,100891.67
2022-11-12T00:55:47.685Z,100890.16
2022-11-12T00:58:34.388Z,100893.55
2022-11-12T01:01:20.141Z,100887.83
2022-11-12T01:04:05.674Z,100885.36
2022-11-12T01:06:51.039Z,100886.87
2022-11-12T01:09:36.482Z,100881.64
2022-11-12T01:12:22.045Z,100883.61
2022-11-12T01:15:08.117Z,100882.34
2022-11-12T01:17:53.566Z,100879.86
2022-11-12T01:20:39.277Z,100880.11
2022-11-12T01:23:24.553Z,100875.10
2022-11-12T01:26:17.778Z,100871.39
2022-11-12T01:29:03.361Z,100873.21
2022-11-12T01:31:48.797Z,100874.64
2022-11-12T01:34:34.563Z,100876.32
2022-11-12T01:37:20.153Z,100871.37
2022-11-12T01:40:06.505Z,100879.17
2022-11-12T01:42:54.949Z,100872.82
2022-11-12T01:45:40.497Z,100871.48
2022-11-12T01:48:34.119Z,100873.86
2022-11-12T01:51:23.340Z,100874.23
2022-11-12T01:54:09.597Z,100875.73
2022-11-12T01:56:55.001Z,100876.76
2022-11-12T01:59:44.776Z,100877.98
2022-11-12T02:02:29.881Z,100881.08
2022-11-12T02:05:15.286Z,100876.65
2022-11-12T02:08:01.185Z,100872.20
2022-11-12T02:10:46.940Z,100875.06
2022-11-12T02:13:51.405Z,100868.61
2022-11-12T02:16:41.346Z,100862.65
2022-11-12T02:19:26.941Z,100860.35
2022-11-12T02:22:12.402Z,100860.23
2022-11-12T02:24:57.898Z,100863.73
2022-11-12T02:27:43.656Z,100862.70
2022-11-12T02:30:43.086Z,100865.17
2022-11-12T02:33:28.404Z,100874.35
2022-11-12T02:36:13.924Z,100872.92
2022-11-12T02:38:59.305Z,100872.29
2022-11-12T02:41:44.983Z,100870.37
2022-11-12T02:44:30.471Z,100864.29
2022-11-12T02:47:15.978Z,100879.58
2022-11-12T02:50:01.157Z,100882.45
2022-11-12T02:52:46.734Z,100866.13
2022-11-12T02:55:31.774Z,100863.73
2022-11-12T02:58:17.302Z,100860.19
2022-11-12T03:01:02.915Z,100865.11
2022-11-12T03:03:48.328Z,100864.84
2022-11-12T03:06:33.753Z,100856.16
2022-11-12T03:09:19.140Z,100865.74
2022-11-12T03:12:04.703Z,100869.26
2022-11-12T03:14:49.964Z,100868.10
2022-11-12T03:17:35.372Z,100866.95
2022-11-12T03:20:20.789Z,100871.30
2022-11-12T03:23:07.755Z,100868.92
2022-11-12T03:25:53.031Z,100872.90
2022-11-12T03:28:38.482Z,100875.92
2022-11-12T03:31:23.629Z,100873.81
2022-11-12T03:34:08.894Z,100871.04
2022-11-12T03:36:54.250Z,100871.23
2022-11-12T03:39:39.598Z,100869.15
2022-11-12T03:42:24.744Z,100876.33
2022-11-12T03:45:10.479Z,100875.05
2022-11-12T03:47:56.467Z,100875.27
2022-11-12T03:50:41.822Z,100868.73
2022-11-12T03:53:27.238Z,100855.76
2022-11-12T03:56:12.649Z,100855.57
2022-11-12T03:58:58.259Z,100862.69
2022-11-12T04:01:43.554Z,100854.94
2022-11-12T04:04:48.872Z,100852.82
2022-11-12T04:07:54.239Z,100850.66
2022-11-12T04:10:39.819Z,100854.61
2022-11-12T04:13:28.014Z,100853.96
2022-11-12T04:16:33.996Z,100861.30
2022-11-12T04:19:38.009Z,100863.47
2022-11-12T04:22:23.416Z,100860.67
2022-11-12T04:25:27.506Z,100864.71
2022-11-12T04:28:12.472Z,100867.14
2022-11-12T04:30:57.750Z,100861.98
2022-11-12T04:33:43.149Z,100857.95
2022-11-12T04:36:28.218Z,100854.55
2022-11-12T04:39:13.464Z,100852.23
2022-11-12T04:42:28.199Z,100863.02
2022-11-12T04:45:13.125Z,100863.69
2022-11-12T04:47:58.638Z,100859.42
2022-11-12T04:50:45.087Z,100854.50
2022-11-12T04:53:30.609Z,100845.66
2022-11-12T04:56:16.071Z,100837.77
2022-11-12T04:59:01.335Z,100832.05
2022-11-12T05:01:46.771Z,100831.00
2022-11-12T05:04:31.953Z,100839.52
2022-11-12T05:07:17.583Z,100842.46
2022-11-12T05:10:02.875Z,100838.07
2022-11-12T05:12:48.347Z,100844.75
2022-11-12T05:15:33.888Z,100854.61
2022-11-12T05:18:19.164Z,100851.72
2022-11-12T05:21:24.651Z,100853.27
2022-11-12T05:24:22.394Z,100858.84
2022-11-12T05:27:17.379Z,100870.88
2022-11-12T05:30:03.209Z,100872.94
2022-11-12T05:32:48.397Z,100872.63
2022-11-12T05:35:33.901Z,100872.19
2022-11-12T05:38:19.502Z,100874.39
2022-11-12T05:41:05.165Z,100873.21
2022-11-12T05:43:50.608Z,100871.60
2022-11-12T05:46:36.249Z,100877.20
2022-11-12T05:49:22.034Z,100878.13
2022-11-12T05:52:07.552Z,100877.14
2022-11-12T05:54:53.029Z,100881.11
2022-11-12T05:57:38.345Z,100883.23
2022-11-12T06:00:24.157Z,100882.53
2022-11-12T06:03:10.518Z,100878.27
2022-11-12T06:05:55.571Z,100874.78
2022-11-12T06:08:41.065Z,100875.37
2022-11-12T06:11:26.393Z,100879.11
2022-11-12T06:14:11.701Z,100877.91
2022-11-12T06:16:57.547Z,100875.98
2022-11-12T06:19:42.981Z,100875.85
2022-11-12T06:22:28.486Z,100873.93
2022-11-12T06:25:13.795Z,100871.38
2022-11-12T06:27:59.118Z,100872.80
2022-11-12T06:30:44.481Z,100872.37
2022-11-12T06:33:29.849Z,100872.21
2022-11-12T06:36:17.129Z,100870.72
2022-11-12T06:39:02.459Z,100868.79
2022-11-12T06:41:47.858Z,100877.12
2022-11-12T06:44:33.098Z,100873.43
2022-11-12T06:47:18.358Z,100866.23
2022-11-12T06:50:03.756Z,100861.52
2022-11-12T06:52:49.020Z,100852.62
2022-11-12T06:55:34.793Z,100850.70
2022-11-12T06:58:20.206Z,100850.60
2022-11-12T07:01:12.048Z,100845.02
2022-11-12T07:03:57.565Z,100833.82
2022-11-12T07:06:42.759Z,100824.79
2022-11-12T07:09:28.160Z,100816.65
2022-11-12T07:12:13.677Z,100818.50
2022-11-12T07:14:59.130Z,100814.21
2022-11-12T07:17:45.903Z,100815.63
2022-11-12T07:20:31.129Z,100810.33
2022-11-12T07:23:16.123Z,100809.45
2022-11-12T07:26:24.354Z,100814.00
2022-11-12T07:29:09.542Z,100818.94
2022-11-12T07:31:54.953Z,100819.98
2022-11-12T07:34:40.417Z,100817.02
2022-11-12T07:37:25.907Z,100817.77
2022-11-12T07:40:11.955Z,100811.00
2022-11-12T07:42:59.218Z,100814.99
2022-11-12T07:45:44.647Z,100814.33
2022-11-12T07:48:30.363Z,100816.33
2022-11-12T07:51:19.950Z,100816.60
2022-11-12T07:54:05.370Z,100812.45
2022-11-12T07:56:50.755Z,100810.98
2022-11-12T07:59:36.151Z,100817.11
2022-11-12T08:02:21.732Z,100812.59
2022-11-12T08:05:16.567Z,100817.58
2022-11-12T08:08:05.848Z,100820.27
2022-11-12T08:10:55.429Z,100820.84
2022-11-12T08:13:40.730Z,100826.73
2022-11-12T08:16:26.241Z,100830.73
2022-11-12T08:19:11.594Z,100830.34
2022-11-12T08:21:56.962Z,100826.83
2022-11-12T08:24:42.341Z,100826.91
2022-11-12T08:27:27.999Z,100829.11
2022-11-12T08:30:13.955Z,100824.45
2022-11-12T08:33:18.290Z,100824.48
2022-11-12T08:36:07.858Z,100825.86
2022-11-12T08:38:53.841Z,100822.42
2022-11-12T08:41:38.928Z,100821.52
2022-11-12T08:44:24.570Z,100823.13
2022-11-12T08:47:10.009Z,100822.96
2022-11-12T08:49:55.396Z,100826.19
2022-11-12T08:52:41.115Z,100822.45
2022-11-12T08:55:26.246Z,100817.16
2022-11-12T08:58:11.375Z,100819.10
2022-11-12T09:00:56.895Z,100815.38
2022-11-12T09:03:42.400Z,100810.59
2022-11-12T09:06:27.938Z,100809.94
2022-11-12T09:09:13.448Z,100802.89
2022-11-12T09:11:58.880Z,100804.99
2022-11-12T09:14:44.343Z,100799.09
2022-11-12T09:17:30.977Z,100797.48
2022-11-12T09:20:16.217Z,100796.08
2022-11-12T09:23:02.985Z,100792.83
2022-11-12T09:25:48.476Z,100794.52
2022-11-12T09:28:33.976Z,100795.09
2022-11-12T09:31:19.420Z,100790.45
2022-11-12T09:34:04.997Z,100790.70
2022-11-12T09:36:50.243Z,100790.42
2022-11-12T09:39:35.614Z,100795.53
2022-11-12T09:42:22.005Z,100793.30
2022-11-12T09:45:18.782Z,100785.48
2022-11-12T09:48:06.786Z,100784.33
2022-11-12T09:50:56.929Z,100785.35
2022-11-12T09:53:58.021Z,100777.86
2022-11-12T09:56:43.419Z,100790.16
2022-11-12T09:59:32.086Z,100793.14
2022-11-12T10:02:33.856Z,100792.61
2022-11-12T10:05:25.185Z,100785.78
2022-11-12T10:08:33.367Z,100780.64
2022-11-12T10:11:25.394Z,100783.89
2022-11-12T10:14:23.134Z,100781.97
2022-11-12T10:17:50.590Z,100787.41
2022-11-12T10:20:46.552Z,100787.95
2022-11-12T10:23:43.106Z,100784.27
2022-11-12T10:26:28.735Z,100782.05
2022-11-12T10:29:20.065Z,100775.20
2022-11-12T10:32:05.192Z,100769.84
2022-11-12T10:34:50.814Z,100771.45
2022-11-12T10:37:59.278Z,100769.60
2022-11-12T10:40:44.412Z,100762.06
2022-11-12T10:43:29.873Z,100756.23
2022-11-12T10:49:01.570Z,100756.26
2022-11-12T10:51:56.825Z,100750.00
2022-11-12T10:54:42.342Z,100754.21
2022-11-12T10:57:27.830Z,100753.48
2022-11-12T11:00:13.165Z,100749.23
2022-11-12T11:02:58.991Z,100741.55
2022-11-12T11:05:59.918Z,100736.08
2022-11-12T11:08:49.835Z,100740.31
2022-11-12T11:11:34.988Z,100743.25
2022-11-12T11:14:23.446Z,100738.04
2022-11-12T11:17:17.500Z,100733.88
2022-11-12T11:20:13.991Z,100730.73
2022-11-12T11:23:24.238Z,100732.55
2022-11-12T11:26:51.838Z,100734.17
2022-11-12T11:29:52.229Z,100736.67
2022-11-12T11:32:53.049Z,100734.94
2022-11-12T11:35:47.801Z,100739.16
2022-11-12T11:38:41.616Z,100737.32
2022-11-12T11:42:02.450Z,100730.68
2022-11-12T11:45:13.581Z,100732.04
2022-11-12T11:48:14.530Z,100727.29
2022-11-12T11:51:06.954Z,100723.52
2022-11-12T11:54:24.549Z,100721.50
2022-11-12T11:57:20.024Z,100720.36
2022-11-12T12:00:15.768Z,100715.70
2022-11-12T12:03:15.123Z,100715.28
2022-11-12T12:06:18.391Z,100718.91
2022-11-12T12:09:39.174Z,100720.23
2022-11-12T12:12:40.940Z,100710.86
2022-11-12T12:15:47.014Z,100705.35
2022-11-12T12:18:40.901Z,100705.08
2022-11-12T12:21:26.520Z,100704.38
2022-11-12T12:24:30.427Z,100703.15
2022-11-12T12:27:24.476Z,100700.39
2022-11-12T12:30:22.606Z,100698.77
2022-11-12T12:33:17.012Z,100690.59
2022-11-12T12:36:04.073Z,100696.09
2022-11-12T12:38:53.041Z,100690.89
2022-11-12T12:41:43.863Z,100685.99
2022-11-12T12:44:49.628Z,100691.73
2022-11-12T12:47:39.411Z,100685.39
2022-11-12T12:50:24.534Z,100683.88
2022-11-12T12:53:12.679Z,100687.10
2022-11-12T12:55:58.853Z,100685.59
2022-11-12T12:58:45.276Z,100679.54
2022-11-12T13:01:33.263Z,100679.88
2022-11-12T13:04:18.715Z,100682.21
2022-11-12T13:07:09.922Z,100683.20
2022-11-12T13:10:34.755Z,100684.45
2022-11-12T13:13:19.833Z,100687.25
2022-11-12T13:16:05.363Z,100689.13
2022-11-12T13:18:50.846Z,100690.85
2022-11-12T13:21:36.035Z,100693.13
2022-11-12T13:24:51.170Z,100691.75
2022-11-12T13:27:39.537Z,100691.92
2022-11-12T13:30:24.951Z,100689.37
2022-11-12T13:33:21.704Z,100691.31
2022-11-12T13:36:36.227Z,100691.09
2022-11-12T13:39:21.701Z,100686.63
2022-11-12T13:42:35.538Z,100682.97
2022-11-12T13:45:23.770Z,100685.75
2022-11-12T13:48:12.840Z,100681.74
2022-11-12T13:51:03.561Z,100686.88
2022-11-12T13:53:49.018Z,100685.26
2022-11-12T13:56:35.314Z,100687.59
2022-11-12T13:59:22.847Z,100692.05
2022-11-12T14:02:25.659Z,100695.34
2022-11-12T14:05:15.693Z,100698.77
2022-11-12T14:08:28.971Z,100697.27
2022-11-12T14:11:29.367Z,100698.35
2022-11-12T14:14:40.562Z,100693.74
2022-11-12T14:17:38.302Z,100692.91
2022-11-12T14:20:26.197Z,100692.78
2022-11-12T14:23:12.980Z,100688.80
2022-11-12T14:25:58.390Z,100689.91
2022-11-12T14:28:43.816Z,100686.80
2022-11-12T14:31:29.211Z,100684.77
2022-11-12T14:34:32.283Z,100685.74
2022-11-12T14:37:41.418Z,100688.99
2022-11-12T14:40:29.239Z,100687.55
2022-11-12T14:43:31.409Z,100691.36
2022-11-12T14:46:38.409Z,100694.09
2022-11-12T14:49:44.783Z,100698.96
2022-11-12T14:52:36.166Z,100691.65
2022-11-12T14:55:26.929Z,100690.34
2022-11-12T14:58:16.221Z,100689.78
2022-11-12T15:01:44.990Z,100680.48
2022-11-12T15:04:26.114Z,100678.27
2022-11-12T15:07:30.761Z,100670.08
2022-11-12T15:10:28.355Z,100673.48
2022-11-12T15:13:21.041Z,100676.95
2022-11-12T15:16:07.458Z,100671.73
2022-11-12T15:19:14.359Z,100674.38
2022-11-12T15:22:03.519Z,100682.59
2022-11-12T15:24:49.691Z,100678.04
2022-11-12T15:27:40.052Z,100677.86
2022-11-12T15:30:27.476Z,100673.43
2022-11-12T15:33:13.067Z,100673.76
2022-11-12T15:35:59.473Z,100671.67
2022-11-12T15:38:48.979Z,100666.77
2022-11-12T15:41:34.095Z,100670.38
2022-11-12T15:44:19.378Z,100669.37
2022-11-12T15:47:05.064Z,100670.64
2022-11-12T15:49:58.758Z,100660.14
2022-11-12T15:52:44.096Z,100664.30
2022-11-12T15:55:29.156Z,100663.55
2022-11-12T15:58:18.629Z,100666.29
2022-11-12T16:01:04.096Z,100665.52
2022-11-12T16:03:49.141Z,100663.54
2022-11-12T16:06:34.462Z,100659.03
2022-11-12T16:09:19.554Z,100646.59
2022-11-12T16:12:05.261Z,100648.09
2022-11-12T16:14:50.614Z,100650.55
2022-11-12T16:17:35.854Z,100649.25
2022-11-12T16:20:23.268Z,100649.52
2022-11-12T16:23:08.554Z,100650.13
2022-11-12T16:25:54.216Z,100657.15
2022-11-12T16:28:42.193Z,100649.70
2022-11-12T16:31:27.420Z,100647.94
2022-11-12T16:34:12.773Z,100654.25
2022-11-12T16:36:58.331Z,100657.91
2022-11-12T16:39:43.769Z,100660.52
2022-11-12T16:42:28.898Z,100668.90
2022-11-12T16:45:18.673Z,100664.42
2022-11-12T16:48:10.410Z,100669.04
2022-11-12T16:50:55.688Z,100671.98
2022-11-12T16:53:40.986Z,100669.61
2022-11-12T16:56:26.238Z,100664.54
2022-11-12T16:59:14.378Z,100673.59
2022-11-12T17:01:59.682Z,100677.58
2022-11-12T17:04:44.754Z,100677.76
2022-11-12T17:07:30.123Z,100680.61
2022-11-12T17:10:16.364Z,100671.05
2022-11-12T17:13:01.893Z,100673.10
2022-11-12T17:15:47.362Z,100675.45
2022-11-12T17:18:32.777Z,100667.67
2022-11-12T17:21:18.524Z,100662.44
2022-11-12T17:24:04.350Z,100660.00
2022-11-12T17:26:49.961Z,100667.67
2022-11-12T17:29:35.360Z,100669.58
2022-11-12T17:32:20.909Z,100667.91
2022-11-12T17:35:06.906Z,100670.01
2022-11-12T17:37:52.313Z,100673.86
2022-11-12T17:40:38.402Z,100679.73
2022-11-12T17:43:24.000Z,100680.02
2022-11-12T17:46:09.513Z,100680.86
2022-11-12T17:48:55.294Z,100680.90
2022-11-12T17:51:40.557Z,100683.04
2022-11-12T17:54:25.867Z,100688.41
2022-11-12T17:57:13.290Z,100689.15
2022-11-12T17:59:58.704Z,100686.31
2022-11-12T18:02:44.173Z,100685.50
2022-11-12T18:05:30.547Z,100685.98
2022-11-12T18:08:16.186Z,100686.36
2022-11-12T18:11:02.455Z,100687.05
2022-11-12T18:13:48.026Z,100683.39
2022-11-12T18:16:33.618Z,100682.61
2022-11-12T18:19:19.297Z,100682.45
2022-11-12T18:22:04.980Z,100686.32
2022-11-12T18:24:50.766Z,100689.00
2022-11-12T18:27:36.246Z,100678.42
2022-11-12T18:30:21.728Z,100676.42
2022-11-12T18:33:07.134Z,100679.98
2022-11-12T18:36:06.600Z,100674.11
2022-11-12T18:38:52.644Z,100677.95
2022-11-12T18:41:37.832Z,100680.01
2022-11-12T18:44:26.122Z,100678.15
2022-11-12T18:47:11.731Z,100678.95
2022-11-12T18:49:57.164Z,100678.58
2022-11-12T18:52:42.410Z,100665.73
2022-11-12T18:55:27.949Z,100667.74
2022-11-12T18:58:13.588Z,100671.98
2022-11-12T19:01:06.437Z,100670.84
2022-11-12T19:03:52.881Z,100677.19
2022-11-12T19:06:38.134Z,100672.73
2022-11-12T19:09:23.631Z,100673.34
2022-11-12T19:12:09.273Z,100680.42
2022-11-12T19:14:54.793Z,100680.02
2022-11-12T19:17:40.176Z,100683.90
2022-11-12T19:20:25.541Z,100681.94
2022-11-12T19:23:11.107Z,100681.77
2022-11-12T19:25:56.779Z,100689.77
2022-11-12T19:28:42.544Z,100685.33
2022-11-12T19:31:30.745Z,100681.61
2022-11-12T19:34:16.117Z,100685.03
2022-11-12T19:40:07.618Z,100690.09
2022-11-12T19:42:53.139Z,100693.10
2022-11-12T19:45:38.456Z,100689.69
2022-11-12T19:48:24.195Z,100696.44
2022-11-12T19:51:10.490Z,100686.02
2022-11-12T19:53:55.598Z,100685.31
2022-11-12T19:56:41.002Z,100676.80
2022-11-12T19:59:26.444Z,100678.44
2022-11-12T20:02:12.169Z,100681.33
2022-11-12T20:04:57.384Z,100675.89
2022-11-12T20:07:42.830Z,100674.21
2022-11-12T20:10:28.409Z,100679.91
2022-11-12T20:13:14.028Z,100674.18
2022-11-12T20:15:59.419Z,100665.73
2022-11-12T20:18:49.827Z,100668.90
2022-11-12T20:21:36.316Z,100667.11
2022-11-12T20:24:21.847Z,100663.45
2022-11-12T20:27:07.939Z,100662.46
2022-11-12T20:29:53.277Z,100662.17
2022-11-12T20:32:38.811Z,100660.45
2022-11-12T20:35:24.578Z,100656.66
2022-11-12T20:38:10.050Z,100654.63
2022-11-12T20:41:00.148Z,100653.79
2022-11-12T20:43:45.698Z,100646.84
2022-11-12T20:46:31.021Z,100651.59
2022-11-12T20:49:16.365Z,100653.05
2022-11-12T20:52:01.808Z,100648.58
2022-11-12T20:54:47.173Z,100643.11
2022-11-12T20:57:32.741Z,100638.91
2022-11-12T21:00:23.768Z,100641.11
2022-11-12T21:03:09.318Z,100638.41
2022-11-12T21:05:59.594Z,100637.70
2022-11-12T21:08:45.047Z,100642.54
2022-11-12T21:11:30.513Z,100641.52
2022-11-12T21:14:15.891Z,100640.15
2022-11-12T21:17:01.482Z,100635.27
2022-11-12T21:19:46.883Z,100637.70
2022-11-12T21:22:32.259Z,100634.52
2022-11-12T21:25:17.666Z,100640.14
2022-11-12T21:28:04.519Z,100639.63
2022-11-12T21:30:49.888Z,100643.98
2022-11-12T21:33:35.481Z,100646.93
2022-11-12T21:36:21.093Z,100649.77
2022-11-12T21:39:06.647Z,100650.22
2022-11-12T21:41:53.924Z,100646.13
2022-11-12T21:44:39.341Z,100644.83
2022-11-12T21:47:24.705Z,100643.54
2022-11-12T21:50:10.065Z,100650.06
2022-11-12T21:52:58.547Z,100646.31
2022-11-12T21:55:43.574Z,100644.89
2022-11-12T21:58:29.800Z,100642.27
2022-11-12T22:01:20.094Z,100642.34
2022-11-12T22:04:05.948Z,100645.05
2022-11-12T22:06:51.283Z,100642.13
2022-11-12T22:09:36.869Z,100646.10
2022-11-12T22:12:22.202Z,100648.23
2022-11-12T22:15:08.148Z,100650.70
2022-11-12T22:17:53.910Z,100658.20
2022-11-12T22:20:39.425Z,100659.65
2022-11-12T22:23:25.467Z,100667.33
2022-11-12T22:26:13.111Z,100665.58
2022-11-12T22:28:58.869Z,100666.67
2022-11-12T22:31:44.310Z,100668.67
2022-11-12T22:34:29.710Z,100661.23
2022-11-12T22:37:15.077Z,100670.77
2022-11-12T22:40:00.641Z,100670.23
2022-11-12T22:42:46.177Z,100675.19
2022-11-12T22:45:31.414Z,100671.43
2022-11-12T22:48:16.896Z,100676.46
2022-11-12T22:51:03.779Z,100679.84
2022-11-12T22:53:53.090Z,100679.43
2022-11-12T22:56:39.800Z,100682.06
2022-11-12T22:59:25.074Z,100688.77
2022-11-12T23:02:10.683Z,100689.42
2022-11-12T23:06:05.772Z,100691.40
2022-11-12T23:08:51.351Z,100694.68
2022-11-12T23:11:37.855Z,100695.13
2022-11-12T23:14:23.453Z,100688.42
2022-11-12T23:17:09.023Z,100696.63
2022-11-12T23:19:54.807Z,100700.39
2022-11-12T23:22:40.510Z,100700.73
2022-11-12T23:25:26.135Z,100702.55
2022-11-12T23:28:11.771Z,100705.44
2022-11-12T23:30:57.252Z,100707.48
2022-11-12T23:33:50.466Z,100705.05
2022-11-12T23:36:35.683Z,100704.48
2022-11-12T23:39:20.949Z,100704.24
2022-11-12T23:42:06.318Z,100703.81
2022-11-12T23:44:51.682Z,100707.61
2022-11-12T23:47:37.039Z,100706.81
2022-11-12T23:50:22.630Z,100704.35
2022-11-12T23:53:07.899Z,100701.71
2022-11-12T23:55:53.382Z,100697.00
2022-11-12T23:58:38.642Z,100694.61
